createdAt,value
2017-08-21T00:02:08.704Z,82.56
2017-08-21T00:04:36.364Z,81.95
2017-08-21T00:07:04.360Z,81.40
2017-08-21T00:09:32.304Z,81.73
2017-08-21T00:12:00.144Z,79.29
2017-08-21T00:14:27.830Z,78.60
2017-08-21T00:16:55.494Z,79.06
2017-08-21T00:19:23.222Z,78.90
2017-08-21T00:21:51.055Z,78.80
2017-08-21T00:24:18.981Z,78.44
2017-08-21T00:26:46.944Z,78.49
2017-08-21T00:29:15.010Z,79.57
2017-08-21T00:31:42.755Z,78.78
2017-08-21T00:34:10.623Z,79.47
2017-08-21T00:36:38.611Z,80.04
2017-08-21T00:39:06.486Z,78.98
2017-08-21T00:41:34.224Z,79.81
2017-08-21T00:44:02.213Z,78.67
2017-08-21T00:46:30.080Z,77.97
2017-08-21T00:48:58.074Z,78.85
2017-08-21T00:51:26.040Z,77.89
2017-08-21T00:53:53.906Z,76.75
2017-08-21T00:56:21.748Z,75.85
2017-08-21T00:58:49.492Z,77.84
2017-08-21T01:01:17.508Z,77.91
2017-08-21T01:03:45.227Z,78.33
2017-08-21T01:06:13.242Z,78.86
2017-08-21T01:08:40.963Z,79.27
2017-08-21T01:11:08.924Z,79.59
2017-08-21T01:13:36.816Z,79.82
2017-08-21T01:16:04.500Z,79.51
2017-08-21T01:18:32.226Z,79.57
2017-08-21T01:21:00.220Z,79.10
2017-08-21T01:23:28.086Z,78.43
2017-08-21T01:25:55.904Z,78.40
2017-08-21T01:28:23.793Z,78.94
2017-08-21T01:30:51.707Z,78.87
2017-08-21T01:33:19.431Z,79.38
2017-08-21T01:35:47.233Z,78.93
2017-08-21T01:38:15.088Z,78.74
2017-08-21T01:40:42.971Z,78.28
2017-08-21T01:43:11.042Z,78.35
2017-08-21T01:45:38.766Z,77.03
2017-08-21T01:48:06.775Z,77.19
2017-08-21T01:50:34.847Z,76.95
2017-08-21T01:53:02.566Z,75.29
2017-08-21T01:55:30.433Z,76.37
2017-08-21T01:57:58.245Z,76.29
2017-08-21T02:00:25.969Z,76.06
2017-08-21T02:02:53.775Z,75.96
2017-08-21T02:05:21.775Z,76.32
2017-08-21T02:07:49.617Z,76.59
2017-08-21T02:10:17.576Z,76.37
2017-08-21T02:12:45.591Z,75.83
2017-08-21T02:15:13.308Z,75.48
2017-08-21T02:17:40.972Z,74.84
2017-08-21T02:20:08.978Z,75.73
2017-08-21T02:22:36.822Z,75.82
2017-08-21T02:25:04.759Z,76.23
2017-08-21T02:27:32.827Z,77.44
2017-08-21T02:30:00.622Z,78.67
2017-08-21T02:32:28.584Z,77.98
2017-08-21T02:34:56.657Z,78.19
2017-08-21T02:37:24.372Z,78.01
2017-08-21T02:39:52.316Z,77.77
2017-08-21T02:42:20.055Z,77.77
2017-08-21T02:44:47.895Z,77.49
2017-08-21T02:47:15.640Z,76.99
2017-08-21T02:49:43.654Z,77.31
2017-08-21T02:52:11.650Z,77.01
2017-08-21T02:54:39.390Z,76.92
2017-08-21T02:57:07.252Z,76.81
2017-08-21T02:59:34.913Z,76.42
2017-08-21T03:02:02.642Z,76.49
2017-08-21T03:04:30.633Z,76.21
2017-08-21T03:06:58.302Z,75.47
2017-08-21T03:09:26.018Z,74.96
2017-08-21T03:11:53.840Z,73.92
2017-08-21T03:14:21.553Z,74.09
2017-08-21T03:16:49.517Z,73.73
2017-08-21T03:19:17.332Z,73.63
2017-08-21T03:21:45.276Z,72.64
2017-08-21T03:24:13.175Z,72.76
2017-08-21T03:26:41.246Z,72.46
2017-08-21T03:29:09.104Z,71.96
2017-08-21T03:31:36.970Z,72.11
2017-08-21T03:34:05.036Z,71.58
2017-08-21T03:36:32.742Z,71.05
2017-08-21T03:39:00.771Z,71.80
2017-08-21T03:41:28.652Z,71.17
2017-08-21T03:43:56.382Z,70.97
2017-08-21T03:46:23.989Z,70.14
2017-08-21T03:48:51.969Z,69.70
2017-08-21T03:51:19.914Z,70.34
2017-08-21T03:53:47.775Z,69.22
2017-08-21T03:56:15.854Z,69.61
2017-08-21T03:58:43.518Z,69.56
2017-08-21T04:01:11.326Z,69.45
2017-08-21T04:03:39.069Z,69.14
2017-08-21T04:06:06.706Z,69.12
2017-08-21T04:08:34.808Z,68.42
2017-08-21T04:11:02.817Z,68.64
2017-08-21T04:13:30.718Z,68.90
2017-08-21T04:15:58.430Z,69.39
2017-08-21T04:18:26.296Z,69.34
2017-08-21T04:20:54.238Z,69.14
2017-08-21T04:23:22.083Z,70.06
2017-08-21T04:25:49.898Z,69.58
2017-08-21T04:28:17.919Z,69.28
2017-08-21T04:30:45.751Z,70.15
2017-08-21T04:33:13.524Z,69.67
2017-08-21T04:35:41.314Z,70.16
2017-08-21T04:38:09.153Z,69.64
2017-08-21T04:40:36.874Z,69.77
2017-08-21T04:43:04.689Z,69.83
2017-08-21T04:45:32.556Z,69.96
2017-08-21T04:48:00.300Z,69.64
2017-08-21T04:50:28.170Z,69.69
2017-08-21T04:52:55.972Z,69.38
2017-08-21T04:55:23.976Z,69.21
2017-08-21T04:57:51.912Z,68.80
2017-08-21T05:00:19.573Z,69.19
2017-08-21T05:02:47.234Z,68.47
2017-08-21T05:05:15.110Z,68.65
2017-08-21T05:07:42.887Z,68.76
2017-08-21T05:10:10.836Z,68.63
2017-08-21T05:12:38.668Z,68.46
2017-08-21T05:15:06.367Z,68.53
2017-08-21T05:17:34.438Z,68.91
2017-08-21T05:20:02.245Z,69.31
2017-08-21T05:22:30.171Z,68.75
2017-08-21T05:24:58.105Z,69.01
2017-08-21T05:27:26.095Z,67.87
2017-08-21T05:29:53.840Z,68.13
2017-08-21T05:32:21.828Z,67.85
2017-08-21T05:34:49.897Z,67.22
2017-08-21T05:37:17.642Z,66.42
2017-08-21T05:39:45.650Z,65.77
2017-08-21T05:42:13.312Z,64.44
2017-08-21T05:44:40.975Z,63.68
2017-08-21T05:47:09.031Z,63.77
2017-08-21T05:49:36.778Z,62.93
2017-08-21T05:52:04.765Z,62.36
2017-08-21T05:54:32.833Z,61.01
2017-08-21T05:57:00.695Z,60.95
2017-08-21T05:59:28.585Z,60.88
2017-08-21T06:01:56.587Z,60.20
2017-08-21T06:04:24.429Z,60.46
2017-08-21T06:06:52.248Z,60.71
2017-08-21T06:09:20.113Z,61.10
2017-08-21T06:11:47.921Z,59.39
2017-08-21T06:14:15.770Z,59.31
2017-08-21T06:16:43.714Z,59.17
2017-08-21T06:19:11.725Z,58.66
2017-08-21T06:21:39.745Z,58.96
2017-08-21T06:24:07.567Z,60.03
2017-08-21T06:26:35.505Z,59.49
2017-08-21T06:29:03.367Z,59.62
2017-08-21T06:31:31.116Z,58.41
2017-08-21T06:33:59.081Z,58.72
2017-08-21T06:36:26.792Z,57.74
2017-08-21T06:38:54.816Z,58.42
2017-08-21T06:41:22.707Z,58.40
2017-08-21T06:43:50.450Z,59.17
2017-08-21T06:46:18.321Z,59.50
2017-08-21T06:48:46.333Z,59.00
2017-08-21T06:51:14.176Z,59.75
2017-08-21T06:53:42.271Z,60.19
2017-08-21T06:56:10.130Z,59.90
2017-08-21T06:58:37.975Z,59.48
2017-08-21T07:01:05.722Z,59.49
2017-08-21T07:03:33.740Z,60.84
2017-08-21T07:06:01.708Z,59.30
2017-08-21T07:08:29.677Z,60.29
2017-08-21T07:10:57.390Z,60.28
2017-08-21T07:13:25.258Z,59.96
2017-08-21T07:15:53.278Z,60.52
2017-08-21T07:18:21.113Z,60.10
2017-08-21T07:20:48.859Z,58.86
2017-08-21T07:23:16.726Z,58.06
2017-08-21T07:25:44.747Z,55.95
2017-08-21T07:28:12.582Z,55.92
2017-08-21T07:30:40.478Z,55.78
2017-08-21T07:33:08.316Z,55.58
2017-08-21T07:35:36.212Z,55.69
2017-08-21T07:38:04.209Z,54.42
2017-08-21T07:40:32.152Z,54.79
2017-08-21T07:42:59.861Z,55.14
2017-08-21T07:45:27.882Z,54.47
2017-08-21T07:47:55.717Z,54.72
2017-08-21T07:50:23.408Z,54.82
2017-08-21T07:52:51.473Z,55.13
2017-08-21T07:55:19.321Z,54.71
2017-08-21T07:57:47.413Z,55.93
2017-08-21T08:00:15.357Z,56.77
2017-08-21T08:02:43.333Z,56.85
2017-08-21T08:05:11.226Z,57.29
2017-08-21T08:07:39.276Z,54.69
2017-08-21T08:10:07.171Z,53.82
2017-08-21T08:12:34.892Z,55.13
2017-08-21T08:15:02.903Z,54.90
2017-08-21T08:17:30.628Z,54.18
2017-08-21T08:19:58.616Z,54.16
2017-08-21T08:22:26.360Z,52.84
2017-08-21T08:24:54.230Z,52.69
2017-08-21T08:27:22.094Z,50.52
2017-08-21T08:29:49.961Z,50.32
2017-08-21T08:32:17.952Z,48.30
2017-08-21T08:34:45.636Z,46.35
2017-08-21T08:37:13.639Z,45.68
2017-08-21T08:39:41.481Z,42.82
2017-08-21T08:42:09.324Z,43.43
2017-08-21T08:44:37.290Z,43.53
2017-08-21T08:47:05.155Z,43.21
2017-08-21T08:49:33.022Z,44.70
2017-08-21T08:52:01.090Z,45.21
2017-08-21T08:54:28.980Z,48.10
2017-08-21T08:56:56.703Z,46.70
2017-08-21T08:59:24.691Z,48.03
2017-08-21T09:01:52.559Z,48.02
2017-08-21T09:04:20.445Z,48.17
2017-08-21T09:06:48.494Z,47.25
2017-08-21T09:09:16.386Z,49.16
2017-08-21T09:11:44.206Z,47.45
2017-08-21T09:14:12.169Z,45.72
2017-08-21T09:16:40.088Z,44.68
2017-08-21T09:19:07.928Z,46.32
2017-08-21T09:21:35.820Z,47.27
2017-08-21T09:24:03.536Z,47.55
2017-08-21T09:26:31.554Z,46.51
2017-08-21T09:28:59.597Z,46.64
2017-08-21T09:31:27.342Z,45.92
2017-08-21T09:33:55.362Z,46.45
2017-08-21T09:36:23.228Z,47.25
2017-08-21T09:38:51.068Z,49.03
2017-08-21T09:41:18.963Z,50.10
2017-08-21T09:43:47.033Z,50.27
2017-08-21T09:46:14.870Z,50.28
2017-08-21T09:48:42.562Z,50.23
2017-08-21T09:51:10.635Z,51.21
2017-08-21T09:53:38.604Z,51.23
2017-08-21T09:56:06.537Z,51.76
2017-08-21T09:58:34.439Z,51.84
2017-08-21T10:01:02.497Z,49.39
2017-08-21T10:03:30.340Z,49.15
2017-08-21T10:05:58.111Z,49.91
2017-08-21T10:08:26.098Z,50.88
2017-08-21T10:10:53.965Z,51.07
2017-08-21T10:13:22.034Z,51.22
2017-08-21T10:16:17.005Z,50.54
2017-08-21T10:18:44.847Z,51.42
2017-08-21T10:21:12.747Z,51.59
2017-08-21T10:23:40.728Z,51.03
2017-08-21T10:26:08.828Z,52.73
2017-08-21T10:28:36.541Z,53.54
2017-08-21T10:31:04.562Z,55.08
2017-08-21T10:33:32.632Z,55.38
2017-08-21T10:36:00.368Z,54.81
2017-08-21T10:38:28.235Z,54.19
2017-08-21T10:40:56.225Z,53.53
2017-08-21T10:43:23.903Z,55.06
2017-08-21T10:45:51.968Z,55.81
2017-08-21T10:48:20.041Z,54.56
2017-08-21T10:50:47.893Z,53.91
2017-08-21T10:53:15.614Z,54.00
2017-08-21T10:55:43.643Z,54.21
2017-08-21T10:58:11.495Z,51.88
2017-08-21T11:00:39.235Z,52.02
2017-08-21T11:03:07.132Z,53.07
2017-08-21T11:05:34.979Z,53.69
2017-08-21T11:08:02.842Z,53.44
2017-08-21T11:10:30.636Z,52.83
2017-08-21T11:12:58.350Z,51.56
2017-08-21T11:15:26.367Z,50.16
2017-08-21T11:17:54.449Z,50.41
2017-08-21T11:20:22.103Z,50.90
2017-08-21T11:22:49.818Z,49.48
2017-08-21T11:25:17.839Z,50.26
2017-08-21T11:27:45.675Z,48.09
2017-08-21T11:30:13.541Z,49.08
2017-08-21T11:32:41.409Z,48.24
2017-08-21T11:35:09.276Z,49.41
2017-08-21T11:37:37.021Z,49.08
2017-08-21T11:40:05.042Z,48.27
2017-08-21T11:42:32.877Z,48.65
2017-08-21T11:45:00.774Z,47.09
2017-08-21T11:47:28.635Z,46.87
2017-08-21T11:49:56.357Z,46.84
2017-08-21T11:52:24.375Z,46.97
2017-08-21T11:54:52.449Z,47.44
2017-08-21T11:57:20.098Z,47.46
2017-08-21T11:59:47.825Z,47.61
2017-08-21T12:02:15.841Z,47.46
2017-08-21T12:04:43.560Z,47.89
2017-08-21T12:07:11.426Z,48.81
2017-08-21T12:09:39.442Z,50.19
2017-08-21T12:12:07.285Z,50.96
2017-08-21T12:14:34.971Z,50.38
2017-08-21T12:17:02.898Z,50.15
2017-08-21T12:19:30.911Z,51.25
2017-08-21T12:21:58.882Z,51.11
2017-08-21T12:24:26.645Z,50.25
2017-08-21T12:26:54.365Z,51.32
2017-08-21T12:29:22.383Z,52.35
2017-08-21T12:31:50.245Z,52.33
2017-08-21T12:34:17.967Z,52.58
2017-08-21T12:36:45.978Z,53.25
2017-08-21T12:39:13.924Z,52.96
2017-08-21T12:41:41.767Z,51.70
2017-08-21T12:44:09.785Z,50.24
2017-08-21T12:46:37.598Z,50.75
2017-08-21T12:49:05.418Z,49.74
2017-08-21T12:51:33.285Z,50.34
2017-08-21T12:54:01.028Z,49.38
2017-08-21T12:56:28.672Z,48.94
2017-08-21T12:58:56.576Z,48.53
2017-08-21T13:01:24.505Z,49.13
2017-08-21T13:03:52.303Z,49.04
2017-08-21T13:06:20.287Z,49.40
2017-08-21T13:08:48.044Z,48.52
2017-08-21T13:11:15.894Z,49.11
2017-08-21T13:13:43.610Z,49.68
2017-08-21T13:16:11.440Z,50.56
2017-08-21T13:18:39.101Z,50.78
2017-08-21T13:21:06.765Z,50.98
2017-08-21T13:23:34.801Z,49.89
2017-08-21T13:26:02.601Z,49.79
2017-08-21T13:28:30.418Z,51.34
2017-08-21T13:30:58.407Z,51.49
2017-08-21T13:33:26.148Z,51.84
2017-08-21T13:35:54.168Z,51.37
2017-08-21T13:38:22.468Z,52.03
2017-08-21T13:40:50.302Z,52.91
2017-08-21T13:43:17.963Z,53.14
2017-08-21T13:45:45.915Z,52.45
2017-08-21T13:48:13.755Z,53.26
2017-08-21T13:50:41.781Z,51.44
2017-08-21T13:53:09.663Z,52.79
2017-08-21T13:55:37.480Z,53.66
2017-08-21T13:58:05.771Z,53.38
2017-08-21T14:00:33.655Z,52.46
2017-08-21T14:03:01.384Z,52.52
2017-08-21T14:05:29.251Z,52.81
2017-08-21T14:07:57.042Z,51.46
2017-08-21T14:10:24.786Z,52.96
2017-08-21T14:12:52.751Z,53.16
2017-08-21T14:15:20.568Z,51.60
2017-08-21T14:17:48.415Z,52.11
2017-08-21T14:20:16.280Z,50.88
2017-08-21T14:22:44.220Z,53.33
2017-08-21T14:25:11.912Z,52.55
2017-08-21T14:27:39.753Z,52.55
2017-08-21T14:30:07.446Z,52.29
2017-08-21T14:32:35.462Z,51.73
2017-08-21T14:35:03.278Z,51.45
2017-08-21T14:37:31.250Z,51.97
2017-08-21T14:39:59.286Z,52.36
2017-08-21T14:42:27.032Z,52.89
2017-08-21T14:44:55.060Z,53.04
2017-08-21T14:47:22.890Z,52.71
2017-08-21T14:49:50.635Z,53.71
2017-08-21T14:52:18.500Z,53.27
2017-08-21T14:54:46.317Z,54.22
2017-08-21T14:57:14.019Z,53.91
2017-08-21T14:59:42.001Z,55.24
2017-08-21T15:02:09.711Z,55.34
2017-08-21T15:04:37.437Z,56.01
2017-08-21T15:07:05.444Z,56.16
2017-08-21T15:09:33.421Z,56.65
2017-08-21T15:12:01.234Z,56.79
2017-08-21T15:14:29.046Z,57.80
2017-08-21T15:16:56.699Z,56.56
2017-08-21T15:19:24.374Z,56.70
2017-08-21T15:21:52.444Z,56.00
2017-08-21T15:24:20.031Z,57.08
2017-08-21T15:26:47.760Z,57.20
2017-08-21T15:29:15.658Z,57.51
2017-08-21T15:31:43.245Z,58.34
2017-08-21T15:34:11.088Z,59.27
2017-08-21T15:36:39.032Z,58.83
2017-08-21T15:39:06.875Z,59.34
2017-08-21T15:41:34.559Z,58.87
2017-08-21T15:44:02.423Z,58.91
2017-08-21T15:46:30.148Z,58.93
2017-08-21T15:48:57.941Z,59.12
2017-08-21T15:51:25.605Z,59.44
2017-08-21T15:53:53.277Z,59.74
2017-08-21T15:56:21.134Z,59.59
2017-08-21T15:58:48.796Z,59.73
2017-08-21T16:01:16.409Z,60.21
2017-08-21T16:03:44.139Z,60.32
2017-08-21T16:06:11.991Z,60.98
2017-08-21T16:08:39.851Z,60.98
2017-08-21T16:11:07.731Z,60.90
2017-08-21T16:13:35.598Z,61.32
2017-08-21T16:16:03.261Z,61.74
2017-08-21T16:18:30.918Z,62.04
2017-08-21T16:23:31.780Z,63.10
2017-08-21T16:25:59.380Z,62.73
2017-08-21T16:28:27.220Z,63.00
2017-08-21T16:30:54.973Z,63.23
2017-08-21T16:33:22.629Z,63.36
2017-08-21T16:35:50.615Z,62.79
2017-08-21T16:38:18.273Z,63.58
2017-08-21T16:40:46.082Z,64.25
2017-08-21T16:43:13.886Z,64.23
2017-08-21T16:45:41.531Z,64.81
2017-08-21T16:48:09.433Z,64.72
2017-08-21T16:50:37.030Z,64.24
2017-08-21T16:53:05.112Z,64.66
2017-08-21T16:55:32.821Z,64.72
2017-08-21T16:58:00.666Z,64.88
2017-08-21T17:00:28.515Z,65.28
2017-08-21T17:02:57.434Z,67.03
2017-08-21T17:05:25.415Z,67.33
2017-08-21T17:07:53.285Z,67.63
2017-08-21T17:10:20.955Z,67.59
2017-08-21T17:12:48.808Z,67.65
2017-08-21T17:15:16.671Z,66.72
2017-08-21T17:17:44.339Z,66.42
2017-08-21T17:20:12.205Z,65.16
2017-08-21T17:22:40.319Z,66.99
2017-08-21T17:25:07.935Z,67.07
2017-08-21T17:27:35.584Z,67.48
2017-08-21T17:30:03.260Z,66.77
2017-08-21T17:32:30.959Z,66.28
2017-08-21T17:34:58.550Z,65.85
2017-08-21T17:37:26.229Z,66.51
2017-08-21T17:39:53.908Z,67.38
2017-08-21T17:42:21.497Z,67.62
2017-08-21T17:44:49.349Z,68.86
2017-08-21T17:47:17.104Z,67.75
2017-08-21T17:49:44.803Z,66.23
2017-08-21T17:52:12.633Z,65.46
2017-08-21T17:54:40.341Z,67.15
2017-08-21T17:57:08.367Z,64.26
2017-08-21T17:59:36.098Z,64.44
2017-08-21T18:02:03.818Z,65.92
2017-08-21T18:04:31.656Z,67.03
2017-08-21T18:06:59.475Z,67.00
2017-08-21T18:09:27.289Z,65.24
2017-08-21T18:11:54.944Z,64.52
2017-08-21T18:14:22.714Z,66.47
2017-08-21T18:16:50.418Z,65.42
2017-08-21T18:19:18.258Z,66.44
2017-08-21T18:21:46.057Z,65.43
2017-08-21T18:24:13.668Z,66.63
2017-08-21T18:26:41.331Z,64.84
2017-08-21T18:29:08.995Z,66.52
2017-08-21T18:31:37.068Z,65.39
2017-08-21T18:34:04.728Z,65.76
2017-08-21T18:36:32.732Z,64.67
2017-08-21T18:39:00.682Z,65.58
2017-08-21T18:41:28.388Z,63.09
2017-08-21T18:43:56.188Z,64.80
2017-08-21T18:46:24.050Z,64.82
2017-08-21T18:48:51.838Z,66.40
2017-08-21T18:51:19.588Z,64.52
2017-08-21T18:53:47.327Z,65.27
2017-08-21T18:56:15.125Z,66.17
2017-08-21T18:58:43.197Z,65.91
2017-08-21T19:01:11.062Z,63.28
2017-08-21T19:03:39.015Z,62.52
2017-08-21T19:06:06.997Z,62.29
2017-08-21T19:08:34.648Z,63.29
2017-08-21T19:11:02.736Z,64.00
2017-08-21T19:13:30.764Z,64.35
2017-08-21T19:15:58.671Z,64.83
2017-08-21T19:18:26.536Z,65.00
2017-08-21T19:20:54.398Z,62.48
2017-08-21T19:23:22.277Z,66.05
2017-08-21T19:25:50.122Z,61.65
2017-08-21T19:28:17.786Z,63.49
2017-08-21T19:30:45.412Z,63.70
2017-08-21T19:33:13.024Z,62.46
2017-08-21T19:35:40.685Z,61.36
2017-08-21T19:38:08.339Z,61.23
2017-08-21T19:40:35.928Z,63.01
2017-08-21T19:43:03.568Z,61.20
2017-08-21T19:45:31.169Z,62.71
2017-08-21T19:47:58.798Z,62.51
2017-08-21T19:50:26.504Z,61.90
2017-08-21T19:52:54.135Z,62.22
2017-08-21T19:55:21.750Z,62.17
2017-08-21T19:57:49.443Z,62.89
2017-08-21T20:00:17.042Z,60.45
2017-08-21T20:02:44.664Z,63.04
2017-08-21T20:05:12.343Z,59.09
2017-08-21T20:07:39.954Z,59.39
2017-08-21T20:10:07.571Z,60.32
2017-08-21T20:12:35.232Z,59.96
2017-08-21T20:15:02.847Z,59.23
2017-08-21T20:17:30.507Z,59.56
2017-08-21T20:19:58.172Z,59.40
2017-08-21T20:22:25.782Z,58.73
2017-08-21T20:24:53.377Z,58.72
2017-08-21T20:27:21.042Z,58.62
2017-08-21T20:29:48.647Z,58.87
2017-08-21T20:32:16.246Z,59.60
2017-08-21T20:34:43.901Z,57.69
2017-08-21T20:37:11.498Z,57.92
2017-08-21T20:39:39.082Z,57.63
2017-08-21T20:42:06.738Z,57.46
2017-08-21T20:44:34.351Z,58.47
2017-08-21T20:47:01.967Z,57.82
2017-08-21T20:49:29.636Z,57.85
2017-08-21T20:51:57.246Z,58.44
2017-08-21T20:54:24.859Z,57.78
2017-08-21T20:56:52.500Z,58.83
2017-08-21T20:59:20.107Z,59.04
2017-08-21T21:01:47.706Z,58.85
2017-08-21T21:04:15.462Z,59.46
2017-08-21T21:06:43.096Z,57.49
2017-08-21T21:09:10.702Z,58.30
2017-08-21T21:11:38.385Z,58.90
2017-08-21T21:14:05.994Z,57.69
2017-08-21T21:16:33.643Z,59.17
2017-08-21T21:19:01.310Z,57.80
2017-08-21T21:21:28.915Z,58.45
2017-08-21T21:23:56.511Z,58.28
2017-08-21T21:26:24.187Z,57.49
2017-08-21T21:28:51.810Z,57.37
2017-08-21T21:31:19.423Z,57.54
2017-08-21T21:33:47.089Z,57.41
2017-08-21T21:36:14.701Z,57.48
2017-08-21T21:38:42.305Z,56.94
2017-08-21T21:41:09.959Z,57.57
2017-08-21T21:43:37.571Z,57.19
2017-08-21T21:46:05.237Z,57.97
2017-08-21T21:48:32.911Z,58.23
2017-08-21T21:51:00.485Z,58.17
2017-08-21T21:53:28.072Z,58.66
2017-08-21T21:55:55.740Z,60.08
2017-08-21T21:58:23.372Z,60.29
2017-08-21T22:00:50.976Z,59.42
2017-08-21T22:03:18.610Z,60.19
2017-08-21T22:05:46.212Z,59.72
2017-08-21T22:08:14.026Z,60.08
2017-08-21T22:10:42.065Z,60.18
2017-08-21T22:13:09.753Z,59.79
2017-08-21T22:15:37.383Z,59.43
2017-08-21T22:18:05.217Z,59.15
2017-08-21T22:20:33.112Z,59.01
2017-08-21T22:23:00.853Z,59.63
2017-08-21T22:25:28.586Z,59.02
2017-08-21T22:27:56.316Z,58.77
2017-08-21T22:30:23.965Z,58.34
2017-08-21T22:32:51.743Z,58.65
2017-08-21T22:35:19.707Z,58.12
2017-08-21T22:37:47.363Z,57.47
2017-08-21T22:40:15.421Z,58.12
2017-08-21T22:42:43.283Z,56.77
2017-08-21T22:45:10.955Z,56.33
2017-08-21T22:47:38.636Z,56.31
2017-08-21T22:50:06.463Z,55.89
2017-08-21T22:52:34.367Z,56.25
2017-08-21T22:55:02.038Z,56.30
2017-08-21T22:57:29.864Z,56.13
2017-08-21T22:59:57.552Z,55.93
2017-08-21T23:02:25.572Z,56.30
2017-08-21T23:04:53.291Z,55.44
2017-08-21T23:07:21.133Z,55.78
2017-08-21T23:09:49.000Z,56.41
2017-08-21T23:12:16.870Z,56.35
2017-08-21T23:14:44.764Z,57.12
2017-08-21T23:17:12.832Z,56.94
2017-08-21T23:19:40.561Z,55.73
2017-08-21T23:22:08.465Z,56.55
2017-08-21T23:24:36.429Z,55.50
2017-08-21T23:27:04.271Z,55.53
2017-08-21T23:29:32.165Z,55.53
2017-08-21T23:32:00.079Z,55.73
2017-08-21T23:34:27.900Z,56.25
2017-08-21T23:36:55.737Z,56.06
2017-08-21T23:39:23.634Z,55.88
2017-08-21T23:41:51.603Z,56.04
2017-08-21T23:44:19.539Z,55.99
2017-08-21T23:46:47.282Z,56.42
2017-08-21T23:49:15.306Z,56.19
2017-08-21T23:51:43.140Z,56.65
2017-08-21T23:54:11.040Z,55.52
2017-08-21T23:56:38.976Z,56.61
2017-08-21T23:59:06.966Z,56.02
